Millertown, Canada
Current Conditions -  °F | °C
As of 9:00 AM on Saturday 20 Dec 2014 (Local Time) from CYDF Reporting Station
Overcast Overcast  
Wind Chill: 19°   Ceiling: 3200
Heat Index: 27°   Visibility: 15mi
Dew Point: 21°   Wind: 7mph
Humidity: 80%   Direction: 10°N
Pressure: 30.23"   Gusts: NA
Location:  48.82°N, 56.53°W
Report Text: CYDF 201200Z 01006KT 15SM OVC032 M03/M06 A3023 RMK SC8 SLP238
Loading
Personal Weather Stations






























Interactive Weather Map New forecast layout! Learn more

10-Day Weather Forecast

Advertisements
Track Severe Weather on mobile